| time (UTC) | temp C | wind direction | speed KPH | gust KPH | rain 1hr cm | rain 24hr cm | rain mn cm | humidity % | barometer mb |
| 20260901075200 | 28 | 79 | 4.8 | 16.1 | 0.00 | 0.23 | 0.23 | 87 | 1006.3 |
| 20260901074659 | 29 | 339 | 8.0 | 14.5 | 0.00 | 0.23 | 0.23 | 87 | 1006.5 |
| 20260901074155 | 29 | 42 | 4.8 | 11.3 | 0.00 | 0.23 | 0.23 | 86 | 1006.5 |
| 20260901073651 | 29 | 37 | 11.3 | 14.5 | 0.00 | 0.23 | 0.23 | 85 | 1006.7 |
| 20260901073147 | 29 | 50 | 8.0 | 22.5 | 0.00 | 0.23 | 0.23 | 85 | 1006.7 |
| 20260901072642 | 29 | 99 | 11.3 | 24.1 | 0.00 | 0.23 | 0.23 | 85 | 1006.6 |
| 20260901072136 | 29 | 345 | 8.0 | 11.3 | 0.00 | 0.23 | 0.23 | 85 | 1006.7 |
| 20260901071631 | 29 | 310 | 4.8 | 9.7 | 0.00 | 0.23 | 0.23 | 86 | 1006.4 |
| 20260901071130 | 29 | 19 | 9.7 | 14.5 | 0.13 | 0.23 | 0.23 | 86 | 1006.5 |
| 20260901070624 | 29 | 25 | 8.0 | 25.7 | 0.13 | 0.23 | 0.23 | 86 | 1006.7 |
| 20260901070120 | 29 | 41 | 3.2 | 11.3 | 0.00 | 0.20 | 0.20 | 87 | 1006.4 |
| 20260901065609 | 29 | 23 | 9.7 | 14.5 | 0.00 | 0.20 | 0.20 | 87 | 1006.3 |
| 20260901065108 | 29 | 7 | 9.7 | 17.7 | 0.00 | 0.20 | 0.20 | 88 | 1006.3 |
| 20260901064606 | 28 | 41 | 12.9 | 20.9 | 0.00 | 0.20 | 0.20 | 88 | 1006.4 |
| 20260901064102 | 28 | 351 | 17.7 | 25.7 | 0.00 | 0.20 | 0.20 | 89 | 1006.8 |
| 20260901063558 | 28 | 65 | 6.4 | 17.7 | 0.00 | 0.20 | 0.20 | 90 | 1006.4 |
| 20260901063054 | 28 | 43 | 6.4 | 17.7 | 0.00 | 0.20 | 0.20 | 91 | 1006.4 |
| 20260901062550 | 28 | 29 | 6.4 | 16.1 | 0.00 | 0.20 | 0.20 | 90 | 1006.3 |
| 20260901062045 | 28 | 45 | 4.8 | 12.9 | 0.00 | 0.20 | 0.20 | 90 | 1006.7 |
| 20260901061542 | 28 | 70 | 4.8 | 6.4 | 0.48 | 0.20 | 0.20 | 88 | 1006.6 |
| 20260901061042 | 29 | 13 | 8.0 | 20.9 | 0.30 | 0.18 | 0.18 | 86 | 1006.8 |
| 20260901060536 | 29 | 2 | 8.0 | 17.7 | 0.00 | 0.13 | 0.13 | 86 | 1006.6 |
| 20260901060032 | 29 | 41 | 8.0 | 14.5 | 0.00 | 0.13 | 0.13 | 86 | 1006.7 |
| 20260901055527 | 29 | 327 | 12.9 | 16.1 | 0.00 | 0.13 | 0.13 | 87 | 1006.7 |
| 20260901055024 | 28 | 358 | 6.4 | 11.3 | 0.00 | 0.13 | 0.13 | 88 | 1006.6 |
| 20260901054521 | 28 | 26 | 8.0 | 22.5 | 0.00 | 0.13 | 0.13 | 87 | 1006.6 |
| 20260901054016 | 29 | 26 | 1.6 | 16.1 | 0.00 | 0.13 | 0.13 | 87 | 1006.8 |
| 20260901053512 | 28 | 45 | 8.0 | 12.9 | 0.00 | 0.13 | 0.13 | 87 | 1006.9 |
| 20260901053008 | 28 | 12 | 9.7 | 12.9 | 0.00 | 0.13 | 0.13 | 88 | 1006.8 |
| 20260901052503 | 28 | 32 | 8.0 | 17.7 | 0.00 | 0.13 | 0.13 | 89 | 1006.9 |
| 20260901052002 | 28 | 352 | 9.7 | 25.7 | 0.00 | 0.13 | 0.13 | 89 | 1007.2 |
| 20260901051458 | 28 | 306 | 8.0 | 17.7 | 0.00 | 0.13 | 0.13 | 90 | 1007.2 |
| 20260901050956 | 28 | 49 | 9.7 | 16.1 | 0.00 | 0.13 | 0.13 | 90 | 1007.3 |
| 20260901050453 | 28 | 31 | 4.8 | 14.5 | 0.00 | 0.13 | 0.13 | 90 | 1007.0 |
| 20260901045952 | 28 | 16 | 9.7 | 17.7 | 0.18 | 0.13 | 0.13 | 89 | 1007.2 |
| 20260901045447 | 28 | 358 | 3.2 | 6.4 | 0.48 | 0.13 | 0.13 | 87 | 1007.3 |
| 20260901044942 | 30 | 55 | 14.5 | 17.7 | 0.30 | 0.10 | 0.10 | 83 | 1007.5 |
| 20260901044438 | 30 | 324 | 6.4 | 20.9 | 0.00 | 0.05 | 0.05 | 82 | 1007.2 |
| 20260901043934 | 30 | 14 | 6.4 | 22.5 | 0.00 | 0.05 | 0.05 | 82 | 1007.4 |
| 20260901043430 | 29 | 31 | 9.7 | 24.1 | 0.00 | 0.05 | 0.05 | 83 | 1007.2 |
| 20260901042924 | 29 | 63 | 9.7 | 27.4 | 0.00 | 0.05 | 0.05 | 83 | 1007.4 |
| 20260901042424 | 30 | 132 | 6.4 | 14.5 | 0.00 | 0.05 | 0.05 | 83 | 1007.3 |
| 20260901041919 | 30 | 335 | 8.0 | 16.1 | 0.00 | 0.05 | 0.05 | 82 | 1007.7 |
| 20260901041419 | 30 | 57 | 4.8 | 16.1 | 0.00 | 0.05 | 0.05 | 81 | 1007.7 |
| 20260901040914 | 30 | 346 | 11.3 | 16.1 | 0.00 | 0.05 | 0.05 | 81 | 1007.8 |
| 20260901040414 | 30 | 5 | 8.0 | 12.9 | 0.00 | 0.05 | 0.05 | 80 | 1007.9 |
| 20260901035908 | 30 | 357 | 16.1 | 20.9 | 0.00 | 0.05 | 0.05 | 79 | 1008.0 |
| 20260901035407 | 30 | 32 | 3.2 | 16.1 | 0.00 | 0.05 | 0.05 | 79 | 1007.9 |
| 20260901034905 | 30 | 333 | 8.0 | 14.5 | 0.00 | 0.05 | 0.05 | 80 | 1008.0 |
| 20260901034400 | 30 | 55 | 8.0 | 25.7 | 0.00 | 0.05 | 0.05 | 80 | 1008.0 |
| 20260901033855 | 30 | 12 | 12.9 | 16.1 | 0.00 | 0.05 | 0.05 | 80 | 1008.1 |
| 20260901033354 | 30 | 11 | 9.7 | 22.5 | 0.00 | 0.05 | 0.05 | 81 | 1008.1 |
| 20260901032853 | 30 | 24 | 9.7 | 27.4 | 0.00 | 0.05 | 0.05 | 81 | 1007.9 |
| 20260901032352 | 31 | 13 | 8.0 | 14.5 | 0.00 | 0.05 | 0.05 | 77 | 1008.0 |
| 20260901031848 | 30 | 346 | 12.9 | 14.5 | 0.00 | 0.05 | 0.05 | 78 | 1008.2 |
| 20260901031343 | 30 | 30 | 9.7 | 20.9 | 0.00 | 0.05 | 0.05 | 78 | 1008.3 |
| 20260901030843 | 30 | 271 | 12.9 | 20.9 | 0.00 | 0.05 | 0.05 | 78 | 1008.2 |
| 20260901030338 | 30 | 317 | 11.3 | 22.5 | 0.00 | 0.05 | 0.05 | 78 | 1008.3 |
| 20260901025837 | 30 | 78 | 6.4 | 17.7 | 0.00 | 0.05 | 0.05 | 79 | 1008.3 |
| 20260901025332 | 30 | 42 | 9.7 | 20.9 | 0.00 | 0.05 | 0.05 | 80 | 1008.3 |
| 20260901024827 | 30 | 12 | 6.4 | 22.5 | 0.00 | 0.05 | 0.05 | 80 | 1008.4 |
| 20260901024326 | 30 | 4 | 16.1 | 27.4 | 0.00 | 0.05 | 0.05 | 81 | 1008.3 |
| 20260901023824 | 30 | 38 | 11.3 | 29.0 | 0.00 | 0.05 | 0.05 | 82 | 1008.4 |
| 20260901023320 | 30 | 341 | 14.5 | 27.4 | 0.13 | 0.05 | 0.05 | 83 | 1008.3 |
| 20260901022815 | 29 | 350 | 4.8 | 16.1 | 0.13 | 0.05 | 0.05 | 85 | 1008.3 |
| 20260901022311 | 29 | 28 | 9.7 | 14.5 | 0.00 | 0.03 | 0.03 | 86 | 1008.5 |
| 20260901021805 | 28 | 48 | 14.5 | 17.7 | 0.00 | 0.03 | 0.03 | 86 | 1008.5 |
| 20260901021301 | 28 | 3 | 9.7 | 20.9 | 0.00 | 0.03 | 0.03 | 85 | 1008.5 |
| 20260901020756 | 29 | 37 | 6.4 | 11.3 | 0.00 | 0.03 | 0.03 | 83 | 1008.4 |
| 20260901020251 | 29 | 32 | 6.4 | 14.5 | 0.00 | 0.03 | 0.03 | 82 | 1008.4 |
| 20260901015746 | 29 | 23 | 9.7 | 20.9 | 0.00 | 0.03 | 0.03 | 83 | 1008.5 |
| 20260901015242 | 29 | 213 | 12.9 | 17.7 | 0.00 | 0.03 | 0.03 | 81 | 1008.4 |
| 20260901014742 | 30 | 64 | 8.0 | 12.9 | 0.00 | 0.03 | 0.03 | 79 | 1008.6 |
| 20260901014237 | 30 | 23 | 9.7 | 17.7 | 0.00 | 0.03 | 0.03 | 79 | 1008.6 |
| 20260901013733 | 30 | 18 | 8.0 | 16.1 | 0.00 | 0.03 | 0.03 | 80 | 1008.7 |
| 20260901013228 | 30 | 318 | 8.0 | 11.3 | 0.00 | 0.03 | 0.03 | 79 | 1008.9 |
| 20260901012724 | 30 | 30 | 12.9 | 14.5 | 0.00 | 0.03 | 0.03 | 79 | 1008.6 |
| 20260901012219 | 30 | 36 | 3.2 | 14.5 | 0.00 | 0.03 | 0.03 | 78 | 1008.4 |
| 20260901011714 | 30 | 54 | 11.3 | 12.9 | 0.00 | 0.03 | 0.03 | 79 | 1008.2 |
| 20260901011214 | 30 | 1 | 8.0 | 17.7 | 0.00 | 0.03 | 0.03 | 80 | 1008.3 |
| 20260901010708 | 30 | 2 | 16.1 | 22.5 | 0.00 | 0.03 | 0.03 | 79 | 1008.3 |
| 20260901010202 | 30 | 31 | 1.6 | 12.9 | 0.00 | 0.03 | 0.03 | 82 | 1008.4 |
| 20260901005656 | 29 | 25 | 12.9 | 27.4 | 0.00 | 0.03 | 0.03 | 82 | 1008.3 |
| 20260901005152 | 29 | 357 | 3.2 | 12.9 | 0.00 | 0.03 | 0.03 | 83 | 1008.1 |
| 20260901004652 | 28 | 52 | 4.8 | 14.5 | 0.00 | 0.03 | 0.03 | 84 | 1008.1 |
| 20260901004146 | 28 | 332 | 11.3 | 25.7 | 0.00 | 0.03 | 0.03 | 84 | 1008.2 |
| 20260901003640 | 28 | 11 | 9.7 | 20.9 | 0.00 | 0.03 | 0.03 | 85 | 1007.9 |
| 20260901003139 | 28 | 256 | 9.7 | 14.5 | 0.00 | 0.03 | 0.03 | 83 | 1007.9 |
| 20260901002634 | 28 | 3 | 4.8 | 12.9 | 0.00 | 0.03 | 0.03 | 82 | 1008.0 |
| 20260901002128 | 29 | 85 | 3.2 | 9.7 | 0.00 | 0.03 | 0.03 | 81 | 1008.1 |
| 20260901001624 | 29 | 22 | 11.3 | 17.7 | 0.00 | 0.03 | 0.03 | 81 | 1008.0 |
| 20260901001119 | 29 | 329 | 11.3 | 14.5 | 0.00 | 0.03 | 0.03 | 81 | 1007.9 |
| 20260901000614 | 29 | 51 | 3.2 | 24.1 | 0.00 | 0.03 | 0.03 | 82 | 1008.1 |
| 20260901000109 | 29 | 335 | 12.9 | 17.7 | 0.00 | 0.03 | 0.03 | 81 | 1008.0 |
| 20260831235602 | 29 | 355 | 6.4 | 12.9 | 0.00 | 0.03 | 0.03 | 82 | 1008.1 |
| 20260831235059 | 29 | 14 | 9.7 | 14.5 | 0.00 | 0.03 | 0.03 | 82 | 1007.9 |
| 20260831234557 | 29 | 17 | 6.4 | 16.1 | 0.00 | 0.03 | 0.03 | 81 | 1008.0 |
| 20260831234054 | 29 | 50 | 3.2 | 12.9 | 0.00 | 0.03 | 0.03 | 81 | 1008.0 |
| 20260831233549 | 29 | 48 | 9.7 | 20.9 | 0.00 | 0.03 | 0.03 | 82 | 1007.8 |
| 20260831233045 | 29 | 6 | 8.0 | 14.5 | 0.00 | 0.03 | 0.03 | 82 | 1008.0 |
| 20260831232540 | 29 | 28 | 3.2 | 20.9 | 0.00 | 0.03 | 0.03 | 82 | 1007.7 |
| 20260831232035 | 28 | 5 | 6.4 | 14.5 | 0.00 | 0.03 | 0.03 | 84 | 1007.7 |
| 20260831231532 | 28 | 46 | 11.3 | 17.7 | 0.00 | 0.03 | 0.03 | 83 | 1007.6 |
| 20260831231027 | 28 | 7 | 6.4 | 12.9 | 0.00 | 0.03 | 0.03 | 83 | 1007.6 |
| 20260831230522 | 28 | 305 | 11.3 | 24.1 | 0.00 | 0.03 | 0.03 | 84 | 1007.5 |
| 20260831230022 | 28 | 309 | 14.5 | 17.7 | 0.00 | 0.03 | 0.03 | 84 | 1007.6 |
| 20260831225518 | 28 | 24 | 4.8 | 12.9 | 0.00 | 0.03 | 0.03 | 84 | 1007.6 |
| 20260831225017 | 28 | 226 | 3.2 | 14.5 | 0.00 | 0.03 | 0.03 | 83 | 1007.7 |
| 20260831224512 | 28 | 71 | 3.2 | 11.3 | 0.00 | 0.03 | 0.03 | 84 | 1007.4 |
| 20260831224008 | 28 | 3 | 8.0 | 22.5 | 0.00 | 0.03 | 0.03 | 84 | 1007.4 |
| 20260831223503 | 28 | 147 | 3.2 | 9.7 | 0.00 | 0.03 | 0.03 | 84 | 1007.6 |
| 20260831222959 | 28 | 15 | 9.7 | 12.9 | 0.00 | 0.03 | 0.03 | 85 | 1007.4 |
| 20260831222455 | 28 | 89 | 3.2 | 25.7 | 0.00 | 0.03 | 0.03 | 85 | 1007.3 |
| 20260831221954 | 28 | 40 | 9.7 | 16.1 | 0.00 | 0.03 | 0.03 | 85 | 1007.2 |
| 20260831221450 | 28 | 35 | 3.2 | 6.4 | 0.00 | 0.03 | 0.03 | 85 | 1007.4 |
| 20260831220945 | 28 | 26 | 9.7 | 14.5 | 0.00 | 0.03 | 0.03 | 85 | 1007.5 |
| 20260831220441 | 28 | 58 | 3.2 | 4.8 | 0.00 | 0.03 | 0.03 | 85 | 1007.1 |
| 20260831215936 | 28 | 29 | 8.0 | 12.9 | 0.00 | 0.03 | 0.03 | 84 | 1007.0 |
| 20260831215431 | 28 | 22 | 4.8 | 11.3 | 0.00 | 0.03 | 0.03 | 84 | 1007.0 |
| 20260831214928 | 27 | 51 | 3.2 | 14.5 | 0.00 | 0.03 | 0.03 | 85 | 1007.0 |
| 20260831214425 | 27 | 43 | 6.4 | 11.3 | 0.00 | 0.03 | 0.03 | 86 | 1007.0 |
| 20260831213920 | 27 | 38 | 9.7 | 14.5 | 0.00 | 0.03 | 0.03 | 86 | 1007.1 |
| 20260831213417 | 27 | 58 | 9.7 | 12.9 | 0.00 | 0.03 | 0.03 | 86 | 1007.1 |
| 20260831212917 | 27 | 304 | 3.2 | 6.4 | 0.00 | 0.03 | 0.03 | 86 | 1006.9 |
| 20260831212413 | 27 | 351 | 11.3 | 16.1 | 0.00 | 0.03 | 0.03 | 86 | 1007.0 |
| 20260831211913 | 27 | 322 | 4.8 | 6.4 | 0.00 | 0.03 | 0.03 | 86 | 1006.9 |
| 20260831211408 | 27 | 18 | 4.8 | 14.5 | 0.00 | 0.03 | 0.03 | 86 | 1007.0 |
| 20260831210907 | 27 | 3 | 3.2 | 9.7 | 0.00 | 0.03 | 0.03 | 85 | 1006.9 |
| 20260831210403 | 28 | 314 | 17.7 | 20.9 | 0.00 | 0.03 | 0.03 | 85 | 1007.0 |
| 20260831205859 | 27 | 20 | 6.4 | 14.5 | 0.00 | 0.03 | 0.03 | 85 | 1007.0 |
| 20260831205354 | 27 | 270 | 9.7 | 17.7 | 0.00 | 0.03 | 0.03 | 85 | 1006.8 |
| 20260831204849 | 27 | 12 | 6.4 | 17.7 | 0.00 | 0.03 | 0.03 | 85 | 1007.0 |
| 20260831204348 | 27 | 75 | 3.2 | 9.7 | 0.00 | 0.03 | 0.03 | 85 | 1007.0 |
| 20260831203847 | 27 | 27 | 6.4 | 11.3 | 0.00 | 0.03 | 0.03 | 85 | 1007.0 |
| 20260831203342 | 27 | 27 | 4.8 | 14.5 | 0.00 | 0.03 | 0.03 | 86 | 1007.4 |
| 20260831202841 | 27 | 334 | 4.8 | 17.7 | 0.00 | 0.03 | 0.03 | 86 | 1007.3 |
| 20260831202336 | 27 | 33 | 6.4 | 12.9 | 0.00 | 0.03 | 0.03 | 86 | 1007.5 |
| 20260831201835 | 27 | 29 | 4.8 | 14.5 | 0.00 | 0.03 | 0.03 | 87 | 1007.7 |
| 20260831201334 | 27 | 72 | 1.6 | 11.3 | 0.00 | 0.03 | 0.03 | 87 | 1007.5 |
| 20260831200830 | 27 | 18 | 4.8 | 9.7 | 0.00 | 0.03 | 0.03 | 86 | 1007.6 |
| 20260831200325 | 27 | 31 | 8.0 | 16.1 | 0.00 | 0.03 | 0.03 | 86 | 1007.7 |
| 20260831195820 | 27 | 24 | 6.4 | 9.7 | 0.00 | 0.03 | 0.03 | 86 | 1007.4 |
| 20260831195316 | 27 | 233 | 8.0 | 9.7 | 0.00 | 0.03 | 0.03 | 86 | 1007.6 |
| 20260831194812 | 27 | 216 | 14.5 | 22.5 | 0.00 | 0.03 | 0.03 | 87 | 1007.7 |
| 20260831194307 | 27 | 275 | 4.8 | 12.9 | 0.00 | 0.03 | 0.03 | 87 | 1007.8 |
| 20260831193805 | 27 | 88 | 4.8 | 11.3 | 0.00 | 0.03 | 0.03 | 87 | 1007.6 |
| 20260831193301 | 27 | 297 | 3.2 | 6.4 | 0.00 | 0.03 | 0.03 | 87 | 1007.6 |
| 20260831192756 | 27 | 23 | 6.4 | 14.5 | 0.00 | 0.03 | 0.03 | 87 | 1007.7 |
| 20260831192251 | 27 | 117 | 4.8 | 6.4 | 0.00 | 0.03 | 0.03 | 87 | 1007.8 |
| 20260831191747 | 27 | 21 | 4.8 | 9.7 | 0.00 | 0.03 | 0.03 | 88 | 1007.6 |
| 20260831191243 | 27 | 27 | 3.2 | 14.5 | 0.00 | 0.03 | 0.03 | 88 | 1007.8 |
| 20260831190738 | 27 | 77 | 3.2 | 14.5 | 0.00 | 0.03 | 0.03 | 88 | 1008.1 |
| 20260831190232 | 27 | 89 | 4.8 | 6.4 | 0.00 | 0.03 | 0.03 | 88 | 1008.0 |
| 20260831185727 | 27 | 31 | 4.8 | 12.9 | 0.00 | 0.03 | 0.03 | 89 | 1008.0 |
| 20260831185223 | 27 | 37 | 6.4 | 9.7 | 0.00 | 0.03 | 0.03 | 89 | 1008.1 |
| 20260831184722 | 27 | 24 | 4.8 | 11.3 | 0.00 | 0.03 | 0.03 | 89 | 1008.3 |
| 20260831184218 | 27 | 45 | 3.2 | 12.9 | 0.00 | 0.03 | 0.03 | 89 | 1008.3 |
| 20260831183718 | 27 | 71 | 1.6 | 4.8 | 0.00 | 0.03 | 0.03 | 88 | 1008.4 |
| 20260831183217 | 27 | 357 | 6.4 | 12.9 | 0.18 | 0.03 | 0.03 | 87 | 1008.4 |
| 20260831182716 | 28 | 340 | 11.3 | 14.5 | 0.00 | 0.00 | 0.00 | 86 | 1008.6 |
| 20260831182212 | 28 | 180 | 6.4 | 11.3 | 0.00 | 0.00 | 0.00 | 86 | 1008.5 |
| 20260831181706 | 28 | 38 | 9.7 | 12.9 | 0.00 | 0.00 | 0.00 | 86 | 1008.4 |
| 20260831181201 | 28 | 35 | 9.7 | 16.1 | 0.00 | 0.00 | 0.00 | 86 | 1008.4 |
| 20260831180656 | 27 | 265 | 6.4 | 11.3 | 0.00 | 0.00 | 0.00 | 86 | 1008.2 |
| 20260831180151 | 27 | 85 | 3.2 | 11.3 | 0.00 | 0.00 | 0.00 | 87 | 1008.2 |
| 20260831175645 | 27 | 7 | 14.5 | 25.7 | 0.00 | 0.00 | 0.00 | 87 | 1008.3 |
| 20260831175143 | 27 | 60 | 1.6 | 6.4 | 0.00 | 0.00 | 0.00 | 88 | 1008.4 |
| 20260831174642 | 27 | 358 | 9.7 | 12.9 | 0.00 | 0.00 | 0.00 | 88 | 1008.2 |
| 20260831174138 | 27 | 85 | 4.8 | 12.9 | 0.00 | 0.00 | 0.00 | 88 | 1008.4 |
| 20260831173636 | 27 | 339 | 8.0 | 12.9 | 0.00 | 0.00 | 0.00 | 88 | 1008.4 |
| 20260831173132 | 27 | 41 | 4.8 | 12.9 | 0.00 | 0.00 | 0.00 | 88 | 1008.6 |
| 20260831172632 | 27 | 43 | 3.2 | 11.3 | 0.00 | 0.00 | 0.00 | 88 | 1008.5 |
| 20260831172131 | 27 | 277 | 6.4 | 12.9 | 0.00 | 0.00 | 0.00 | 88 | 1008.6 |
| 20260831171627 | 27 | 207 | 11.3 | 17.7 | 0.00 | 0.00 | 0.00 | 89 | 1008.6 |
| 20260831171124 | 27 | 28 | 3.2 | 9.7 | 0.00 | 0.00 | 0.00 | 88 | 1008.5 |
| 20260831170620 | 27 | 30 | 11.3 | 14.5 | 0.00 | 0.00 | 0.00 | 88 | 1008.4 |
| 20260831170117 | 27 | 22 | 4.8 | 24.1 | 0.00 | 0.00 | 0.00 | 88 | 1008.5 |
| 20260831165612 | 28 | 270 | 4.8 | 27.4 | 0.00 | 0.00 | 0.00 | 87 | 1008.6 |
| 20260831165109 | 28 | 73 | 9.7 | 16.1 | 0.00 | 0.00 | 0.00 | 87 | 1008.4 |
| 20260831164605 | 27 | 338 | 8.0 | 17.7 | 0.00 | 0.00 | 0.00 | 87 | 1008.5 |
| 20260831164100 | 27 | 326 | 4.8 | 9.7 | 0.00 | 0.00 | 0.00 | 87 | 1008.4 |
| 20260831163554 | 27 | 46 | 6.4 | 20.9 | 0.00 | 0.00 | 0.00 | 87 | 1008.5 |
| 20260831163051 | 27 | 236 | 4.8 | 12.9 | 0.00 | 0.00 | 0.00 | 87 | 1008.4 |
| 20260831162549 | 27 | 36 | 3.2 | 6.4 | 0.00 | 0.00 | 0.00 | 87 | 1008.5 |
| 20260831162047 | 27 | 31 | 3.2 | 9.7 | 0.00 | 0.00 | 0.00 | 87 | 1008.9 |
| 20260831161544 | 27 | 107 | 6.4 | 17.7 | 0.00 | 0.00 | 0.00 | 87 | 1008.9 |
| 20260831161040 | 27 | 64 | 3.2 | 11.3 | 0.00 | 0.00 | 0.00 | 87 | 1008.9 |
| 20260831160539 | 27 | 48 | 3.2 | 14.5 | 0.00 | 0.00 | 0.00 | 87 | 1009.0 |
| 20260831160035 | 27 | 45 | 4.8 | 12.9 | 0.00 | 0.00 | 0.00 | 87 | 1008.8 |
| 20260831155530 | 27 | 142 | 0.0 | 14.5 | 0.00 | 0.00 | 0.00 | 87 | 1009.0 |
| 20260831155024 | 27 | 83 | 1.6 | 4.8 | 0.00 | 0.00 | 0.00 | 88 | 1009.0 |
| 20260831154521 | 27 | 58 | 3.2 | 12.9 | 0.00 | 0.00 | 0.00 | 87 | 1009.0 |
| 20260831154020 | 27 | 40 | 3.2 | 6.4 | 0.00 | 0.00 | 0.00 | 87 | 1009.1 |
| 20260831153515 | 27 | 33 | 9.7 | 12.9 | 0.00 | 0.00 | 0.00 | 87 | 1009.0 |
| 20260831153012 | 27 | 352 | 6.4 | 20.9 | 0.00 | 0.00 | 0.00 | 87 | 1009.1 |
| 20260831152507 | 27 | 246 | 11.3 | 14.5 | 0.00 | 0.00 | 0.00 | 88 | 1009.1 |
| 20260831152002 | 27 | 357 | 4.8 | 17.7 | 0.00 | 0.00 | 0.00 | 88 | 1009.1 |
| 20260831151501 | 27 | 330 | 6.4 | 14.5 | 0.00 | 0.00 | 0.00 | 88 | 1009.2 |
| 20260831150956 | 27 | 18 | 6.4 | 9.7 | 0.00 | 0.00 | 0.00 | 88 | 1009.3 |
| 20260831150451 | 27 | 26 | 4.8 | 9.7 | 0.00 | 0.00 | 0.00 | 89 | 1009.3 |
| 20260831145951 | 27 | 47 | 0.0 | 11.3 | 0.00 | 0.15 | 0.15 | 89 | 1009.2 |
| 20260831145447 | 27 | 34 | 6.4 | 12.9 | 0.00 | 0.15 | 0.15 | 89 | 1009.2 |
| 20260831144942 | 27 | 21 | 4.8 | 9.7 | 0.00 | 0.15 | 0.15 | 89 | 1009.3 |
| 20260831144438 | 27 | 100 | 1.6 | 4.8 | 0.00 | 0.15 | 0.15 | 89 | 1009.4 |
| 20260831143933 | 27 | 65 | 3.2 | 12.9 | 0.43 | 0.15 | 0.15 | 87 | 1009.4 |
| 20260831143428 | 28 | 59 | 3.2 | 3.2 | 0.30 | 0.13 | 0.13 | 86 | 1009.3 |
| 20260831142924 | 28 | 59 | 4.8 | 9.7 | 0.00 | 0.08 | 0.08 | 86 | 1009.4 |
| 20260831142420 | 28 | 257 | 11.3 | 17.7 | 0.00 | 0.08 | 0.08 | 86 | 1009.3 |
| 20260831141914 | 28 | 30 | 1.6 | 6.4 | 0.00 | 0.08 | 0.08 | 87 | 1009.5 |
| 20260831141408 | 28 | 41 | 11.3 | 16.1 | 0.00 | 0.08 | 0.08 | 87 | 1009.5 |
| 20260831140903 | 28 | 62 | 3.2 | 9.7 | 0.00 | 0.08 | 0.08 | 87 | 1009.5 |
| 20260831140358 | 28 | 334 | 8.0 | 24.1 | 0.00 | 0.08 | 0.08 | 86 | 1009.5 |
| 20260831135856 | 28 | 60 | 3.2 | 17.7 | 0.00 | 0.08 | 0.08 | 87 | 1009.6 |
| 20260831135351 | 28 | 31 | 11.3 | 17.7 | 0.00 | 0.08 | 0.08 | 87 | 1009.5 |
| 20260831134846 | 28 | 18 | 4.8 | 12.9 | 0.00 | 0.08 | 0.08 | 87 | 1009.4 |
| 20260831134343 | 27 | 24 | 4.8 | 16.1 | 0.00 | 0.08 | 0.08 | 87 | 1009.6 |
| 20260831133842 | 27 | 89 | 1.6 | 11.3 | 0.00 | 0.08 | 0.08 | 88 | 1009.5 |
| 20260831133341 | 27 | 79 | 4.8 | 6.4 | 0.00 | 0.08 | 0.08 | 88 | 1009.6 |
| 20260831132837 | 27 | 55 | 8.0 | 16.1 | 0.00 | 0.08 | 0.08 | 88 | 1009.6 |
| 20260831132332 | 27 | 4 | 6.4 | 14.5 | 0.00 | 0.08 | 0.08 | 89 | 1009.4 |
| 20260831131832 | 27 | 44 | 3.2 | 9.7 | 0.18 | 0.08 | 0.08 | 88 | 1009.4 |
| 20260831131328 | 28 | 5 | 1.6 | 6.4 | 0.30 | 0.08 | 0.08 | 87 | 1009.3 |
| 20260831130823 | 28 | 30 | 3.2 | 12.9 | 0.00 | 0.03 | 0.03 | 84 | 1009.2 |
| 20260831130318 | 28 | 59 | 4.8 | 16.1 | 0.00 | 0.03 | 0.03 | 84 | 1009.1 |
| 20260831125817 | 28 | 336 | 9.7 | 14.5 | 0.00 | 0.03 | 0.03 | 84 | 1009.0 |
| 20260831125313 | 28 | 5 | 4.8 | 6.4 | 0.00 | 0.03 | 0.03 | 84 | 1009.1 |
| 20260831124813 | 28 | 18 | 6.4 | 17.7 | 0.00 | 0.03 | 0.03 | 84 | 1009.0 |
| 20260831124309 | 28 | 13 | 6.4 | 12.9 | 0.00 | 0.03 | 0.03 | 84 | 1009.0 |
| 20260831123809 | 28 | 3 | 8.0 | 12.9 | 0.00 | 0.03 | 0.03 | 84 | 1009.0 |
| 20260831123308 | 28 | 335 | 4.8 | 9.7 | 0.00 | 0.03 | 0.03 | 84 | 1008.9 |
| 20260831122803 | 28 | 335 | 4.8 | 9.7 | 0.00 | 0.03 | 0.03 | 84 | 1009.0 |
| 20260831122258 | 28 | 335 | 4.8 | 9.7 | 0.00 | 0.03 | 0.03 | 84 | 1008.7 |
| 20260831121753 | 28 | 28 | 6.4 | 9.7 | 0.00 | 0.03 | 0.03 | 83 | 1008.9 |
| 20260831121249 | 28 | 1 | 8.0 | 11.3 | 0.00 | 0.03 | 0.03 | 83 | 1009.0 |
| 20260831120744 | 28 | 1 | 8.0 | 11.3 | 0.00 | 0.03 | 0.03 | 83 | 1008.8 |
| 20260831120239 | 28 | 1 | 8.0 | 11.3 | 0.00 | 0.03 | 0.03 | 83 | 1008.9 |
| 20260831115734 | 28 | 1 | 8.0 | 11.3 | 0.00 | 0.03 | 0.03 | 83 | 1009.0 |
| 20260831115230 | 28 | 358 | 9.7 | 14.5 | 0.00 | 0.03 | 0.03 | 83 | 1008.8 |
| 20260831114730 | 28 | 339 | 3.2 | 3.2 | 0.00 | 0.03 | 0.03 | 83 | 1008.7 |
| 20260831114229 | 28 | 7 | 11.3 | 16.1 | 0.00 | 0.03 | 0.03 | 83 | 1009.0 |
| 20260831113725 | 28 | 7 | 11.3 | 16.1 | 0.00 | 0.03 | 0.03 | 83 | 1008.8 |
| 20260831113225 | 28 | 7 | 11.3 | 16.1 | 0.00 | 0.03 | 0.03 | 83 | 1008.6 |
| 20260831112724 | 28 | 50 | 8.0 | 20.9 | 0.00 | 0.03 | 0.03 | 83 | 1008.5 |
| 20260831112219 | 28 | 50 | 8.0 | 20.9 | 0.00 | 0.03 | 0.03 | 83 | 1008.8 |
| 20260831111715 | 28 | 50 | 8.0 | 20.9 | 0.00 | 0.03 | 0.03 | 83 | 1008.5 |
| 20260831111211 | 28 | 50 | 8.0 | 20.9 | 0.00 | 0.03 | 0.03 | 83 | 1008.5 |
| 20260831110706 | 28 | 259 | 8.0 | 11.3 | 0.00 | 0.03 | 0.03 | 83 | 1008.6 |
| 20260831110201 | 28 | 259 | 8.0 | 11.3 | 0.00 | 0.03 | 0.03 | 83 | 1008.4 |
| 20260831105700 | 28 | 11 | 9.7 | 11.3 | 0.00 | 0.03 | 0.03 | 83 | 1008.1 |
| 20260831105155 | 28 | 58 | 4.8 | 6.4 | 0.00 | 0.03 | 0.03 | 83 | 1008.3 |
| 20260831104650 | 28 | 4 | 11.3 | 16.1 | 0.00 | 0.03 | 0.03 | 83 | 1008.4 |
| 20260831104148 | 28 | 331 | 8.0 | 12.9 | 0.00 | 0.03 | 0.03 | 83 | 1008.2 |
| 20260831103647 | 28 | 331 | 8.0 | 12.9 | 0.00 | 0.03 | 0.03 | 83 | 1008.3 |
| 20260831103143 | 28 | 331 | 8.0 | 12.9 | 0.00 | 0.03 | 0.03 | 83 | 1008.4 |
| 20260831102643 | 28 | 331 | 8.0 | 12.9 | 0.00 | 0.03 | 0.03 | 83 | 1008.5 |
| 20260831102138 | 28 | 331 | 8.0 | 12.9 | 0.00 | 0.03 | 0.03 | 83 | 1008.0 |
| 20260831101633 | 28 | 331 | 8.0 | 12.9 | 0.00 | 0.03 | 0.03 | 83 | 1008.3 |
| 20260831101129 | 28 | 331 | 8.0 | 12.9 | 0.00 | 0.03 | 0.03 | 83 | 1008.5 |
| 20260831100625 | 28 | 331 | 8.0 | 12.9 | 0.00 | 0.03 | 0.03 | 83 | 1008.3 |
| 20260831100121 | 28 | 331 | 8.0 | 12.9 | 0.00 | 0.03 | 0.03 | 83 | 1008.3 |
| 20260831095618 | 28 | 331 | 8.0 | 12.9 | 0.00 | 0.03 | 0.03 | 83 | 1008.5 |
| 20260831095114 | 28 | 35 | 3.2 | 6.4 | 0.00 | 0.03 | 0.03 | 83 | 1008.2 |
| 20260831094609 | 28 | 31 | 6.4 | 24.1 | 0.00 | 0.03 | 0.03 | 83 | 1008.3 |
| 20260831094105 | 28 | 47 | 6.4 | 14.5 | 0.00 | 0.03 | 0.03 | 83 | 1008.2 |
| 20260831093600 | 28 | 300 | 4.8 | 12.9 | 0.00 | 0.03 | 0.03 | 82 | 1008.2 |
| 20260831093051 | 28 | 49 | 6.4 | 12.9 | 0.00 | 0.03 | 0.03 | 82 | 1008.1 |
| 20260831092547 | 28 | 27 | 9.7 | 11.3 | 0.00 | 0.03 | 0.03 | 82 | 1008.4 |
| 20260831092042 | 28 | 20 | 6.4 | 24.1 | 0.00 | 0.03 | 0.03 | 82 | 1008.4 |
| 20260831091536 | 28 | 28 | 11.3 | 24.1 | 0.00 | 0.03 | 0.03 | 82 | 1008.4 |
| 20260831091032 | 28 | 8 | 8.0 | 24.1 | 0.00 | 0.03 | 0.03 | 82 | 1008.3 |
| 20260831090527 | 28 | 26 | 8.0 | 14.5 | 0.00 | 0.03 | 0.03 | 82 | 1008.2 |
| 20260831090023 | 28 | 17 | 6.4 | 16.1 | 0.00 | 0.03 | 0.03 | 82 | 1008.1 |
| 20260831085518 | 28 | 16 | 12.9 | 24.1 | 0.00 | 0.03 | 0.03 | 81 | 1008.2 |
| 20260831085013 | 28 | 286 | 14.5 | 24.1 | 0.00 | 0.03 | 0.03 | 81 | 1008.0 |
| 20260831084509 | 29 | 2 | 6.4 | 11.3 | 0.00 | 0.03 | 0.03 | 81 | 1008.1 |
| 20260831084005 | 29 | 5 | 8.0 | 17.7 | 0.00 | 0.03 | 0.03 | 81 | 1008.0 |
| 20260831083505 | 29 | 335 | 3.2 | 20.9 | 0.00 | 0.03 | 0.03 | 81 | 1008.0 |
| 20260831083000 | 29 | 47 | 4.8 | 17.7 | 0.00 | 0.03 | 0.03 | 80 | 1008.0 |
| 20260831082459 | 29 | 352 | 14.5 | 20.9 | 0.00 | 0.03 | 0.03 | 80 | 1008.0 |
| 20260831081954 | 29 | 42 | 9.7 | 24.1 | 0.00 | 0.03 | 0.03 | 80 | 1007.9 |
| 20260831081450 | 29 | 44 | 11.3 | 17.7 | 0.00 | 0.03 | 0.03 | 80 | 1008.1 |
| 20260831080946 | 29 | 81 | 8.0 | 14.5 | 0.00 | 0.03 | 0.03 | 80 | 1007.8 |
| 20260831080440 | 29 | 49 | 4.8 | 6.4 | 0.00 | 0.03 | 0.03 | 81 | 1008.2 |
| 20260831075936 | 29 | 25 | 12.9 | 22.5 | 0.00 | 0.03 | 0.03 | 80 | 1008.0 |
| 20260831075431 | 29 | 42 | 4.8 | 12.9 | 0.00 | 0.03 | 0.03 | 81 | 1008.0 |